Terminal Aerodrome Forecast
Issued by NWS

Home | Current Version | Previous Version | Text Only | Print | Product List | Glossary On
Versions: 1 2 3 4 5 6 7 8 9 10 11 12 13 14 15 16 17 18 19 20 21 22 23 24 25 26 27 28 29 30 31 32 33 34 35 36 37 38 39 40 41
000
FTUS43 KDLH 251100
TAFHIB
TAF
KHIB 251132Z 2512/2612 22004KT 3/4SM BR OVC002
      TEMPO 2512/2513 1SM BR OVC004
     FM251300 23004KT 1SM BR SCT002
      TEMPO 2513/2514 4SM BR
     FM251400 21005KT P6SM SCT010 SCT050
     FM251600 25010G15KT P6SM SCT030
     FM260000 28010KT P6SM SKC=

USA.gov is the U.S. government's official web portal to all federal, state and local government web resources and services.